sensor_id;sensor_type;location;lat;lon;timestamp;P1;durP1;ratioP1;P2;durP2;ratioP2
9964;SDS011;5023;53.554;9.964;2023-02-28T00:04:44;3.47;;;1.90;;
9964;SDS011;5023;53.554;9.964;2023-02-28T00:09:54;3.10;;;2.50;;
9964;SDS011;5023;53.554;9.964;2023-02-28T00:14:56;2.77;;;2.00;;
9964;SDS011;5023;53.554;9.964;2023-02-28T00:19:58;2.47;;;2.20;;
9964;SDS011;5023;53.554;9.964;2023-02-28T00:25:14;4.43;;;3.03;;
9964;SDS011;5023;53.554;9.964;2023-02-28T00:30:19;4.17;;;2.93;;
9964;SDS011;5023;53.554;9.964;2023-02-28T00:35:23;5.63;;;3.30;;
9964;SDS011;5023;53.554;9.964;2023-02-28T00:40:27;7.27;;;4.57;;
9964;SDS011;5023;53.554;9.964;2023-02-28T00:45:29;9.70;;;5.40;;
9964;SDS011;5023;53.554;9.964;2023-02-28T00:50:32;13.03;;;6.90;;
9964;SDS011;5023;53.554;9.964;2023-02-28T00:55:37;7.17;;;4.20;;
9964;SDS011;5023;53.554;9.964;2023-02-28T01:00:39;5.57;;;4.40;;
9964;SDS011;5023;53.554;9.964;2023-02-28T01:05:41;6.20;;;3.70;;
9964;SDS011;5023;53.554;9.964;2023-02-28T01:10:44;6.00;;;3.00;;
9964;SDS011;5023;53.554;9.964;2023-02-28T01:15:48;5.67;;;2.80;;
9964;SDS011;5023;53.554;9.964;2023-02-28T01:20:52;6.60;;;3.70;;
9964;SDS011;5023;53.554;9.964;2023-02-28T01:25:55;6.60;;;3.27;;
9964;SDS011;5023;53.554;9.964;2023-02-28T01:30:57;6.00;;;4.60;;
9964;SDS011;5023;53.554;9.964;2023-02-28T01:36:01;5.57;;;3.67;;
9964;SDS011;5023;53.554;9.964;2023-02-28T01:41:10;5.70;;;4.57;;
9964;SDS011;5023;53.554;9.964;2023-02-28T01:46:17;5.20;;;3.70;;
9964;SDS011;5023;53.554;9.964;2023-02-28T01:51:20;7.83;;;3.97;;
9964;SDS011;5023;53.554;9.964;2023-02-28T01:56:27;9.33;;;4.87;;
9964;SDS011;5023;53.554;9.964;2023-02-28T02:01:34;14.17;;;6.63;;
9964;SDS011;5023;53.554;9.964;2023-02-28T02:06:37;13.70;;;6.60;;
9964;SDS011;5023;53.554;9.964;2023-02-28T02:11:44;25.63;;;14.57;;
9964;SDS011;5023;53.554;9.964;2023-02-28T02:16:52;28.47;;;16.17;;
9964;SDS011;5023;53.554;9.964;2023-02-28T02:27:49;25.37;;;14.03;;
9964;SDS011;5023;53.554;9.964;2023-02-28T02:33:11;28.63;;;15.07;;
9964;SDS011;5023;53.554;9.964;2023-02-28T02:38:31;25.80;;;14.47;;
9964;SDS011;5023;53.554;9.964;2023-02-28T02:43:36;24.03;;;14.10;;
9964;SDS011;5023;53.554;9.964;2023-02-28T02:48:42;28.37;;;15.17;;
9964;SDS011;5023;53.554;9.964;2023-02-28T02:53:49;74.47;;;36.10;;
9964;SDS011;5023;53.554;9.964;2023-02-28T02:58:54;79.37;;;41.37;;
9964;SDS011;5023;53.554;9.964;2023-02-28T03:04:03;84.90;;;42.43;;
9964;SDS011;5023;53.554;9.964;2023-02-28T03:09:10;149.67;;;64.10;;
9964;SDS011;5023;53.554;9.964;2023-02-28T03:14:16;123.83;;;55.27;;
9964;SDS011;5023;53.554;9.964;2023-02-28T03:19:33;76.13;;;36.00;;
9964;SDS011;5023;53.554;9.964;2023-02-28T03:24:45;65.10;;;30.60;;
9964;SDS011;5023;53.554;9.964;2023-02-28T03:29:52;42.17;;;20.97;;
9964;SDS011;5023;53.554;9.964;2023-02-28T03:35:02;35.23;;;18.77;;
9964;SDS011;5023;53.554;9.964;2023-02-28T03:40:14;28.07;;;15.50;;
9964;SDS011;5023;53.554;9.964;2023-02-28T03:45:21;20.50;;;11.53;;
9964;SDS011;5023;53.554;9.964;2023-02-28T03:50:32;14.73;;;9.63;;
9964;SDS011;5023;53.554;9.964;2023-02-28T03:55:42;15.00;;;9.43;;
9964;SDS011;5023;53.554;9.964;2023-02-28T04:00:46;11.70;;;7.57;;
9964;SDS011;5023;53.554;9.964;2023-02-28T04:05:51;7.47;;;5.90;;
9964;SDS011;5023;53.554;9.964;2023-02-28T04:10:58;7.60;;;5.83;;
9964;SDS011;5023;53.554;9.964;2023-02-28T04:16:09;6.27;;;5.03;;
9964;SDS011;5023;53.554;9.964;2023-02-28T04:21:12;8.17;;;5.60;;
9964;SDS011;5023;53.554;9.964;2023-02-28T04:26:16;8.17;;;6.07;;
9964;SDS011;5023;53.554;9.964;2023-02-28T04:31:18;6.70;;;5.40;;
9964;SDS011;5023;53.554;9.964;2023-02-28T04:36:21;8.17;;;5.80;;
9964;SDS011;5023;53.554;9.964;2023-02-28T04:41:25;7.60;;;6.20;;
9964;SDS011;5023;53.554;9.964;2023-02-28T04:46:29;9.03;;;5.93;;
9964;SDS011;5023;53.554;9.964;2023-02-28T04:51:31;7.73;;;5.70;;
9964;SDS011;5023;53.554;9.964;2023-02-28T04:56:37;8.03;;;5.57;;
9964;SDS011;5023;53.554;9.964;2023-02-28T05:01:39;6.83;;;5.30;;
9964;SDS011;5023;53.554;9.964;2023-02-28T05:06:41;9.77;;;6.20;;
9964;SDS011;5023;53.554;9.964;2023-02-28T05:11:46;6.80;;;5.77;;
9964;SDS011;5023;53.554;9.964;2023-02-28T05:16:48;6.83;;;5.80;;
9964;SDS011;5023;53.554;9.964;2023-02-28T05:21:50;8.57;;;6.20;;
9964;SDS011;5023;53.554;9.964;2023-02-28T05:26:56;9.70;;;6.10;;
9964;SDS011;5023;53.554;9.964;2023-02-28T05:31:58;9.40;;;6.63;;
9964;SDS011;5023;53.554;9.964;2023-02-28T05:37:01;9.20;;;6.53;;
9964;SDS011;5023;53.554;9.964;2023-02-28T05:42:04;11.80;;;7.77;;
9964;SDS011;5023;53.554;9.964;2023-02-28T05:47:06;8.97;;;6.10;;
9964;SDS011;5023;53.554;9.964;2023-02-28T05:52:09;10.93;;;7.27;;
9964;SDS011;5023;53.554;9.964;2023-02-28T05:57:17;10.03;;;6.33;;
9964;SDS011;5023;53.554;9.964;2023-02-28T06:02:19;13.50;;;6.97;;
9964;SDS011;5023;53.554;9.964;2023-02-28T06:07:21;18.83;;;7.50;;
9964;SDS011;5023;53.554;9.964;2023-02-28T06:12:26;17.40;;;6.47;;
9964;SDS011;5023;53.554;9.964;2023-02-28T06:17:28;13.50;;;6.77;;
9964;SDS011;5023;53.554;9.964;2023-02-28T06:22:30;16.17;;;9.20;;
9964;SDS011;5023;53.554;9.964;2023-02-28T06:27:34;23.83;;;11.47;;
9964;SDS011;5023;53.554;9.964;2023-02-28T06:32:36;20.57;;;11.70;;
9964;SDS011;5023;53.554;9.964;2023-02-28T06:37:38;22.60;;;12.20;;
9964;SDS011;5023;53.554;9.964;2023-02-28T06:42:41;20.87;;;11.23;;
9964;SDS011;5023;53.554;9.964;2023-02-28T06:47:44;15.73;;;9.30;;
9964;SDS011;5023;53.554;9.964;2023-02-28T06:52:52;13.80;;;9.10;;
9964;SDS011;5023;53.554;9.964;2023-02-28T06:57:57;11.43;;;7.13;;
9964;SDS011;5023;53.554;9.964;2023-02-28T07:02:59;11.13;;;7.40;;
9964;SDS011;5023;53.554;9.964;2023-02-28T07:08:01;11.47;;;7.60;;
9964;SDS011;5023;53.554;9.964;2023-02-28T07:13:07;13.70;;;8.13;;
9964;SDS011;5023;53.554;9.964;2023-02-28T07:18:10;13.73;;;8.70;;
9964;SDS011;5023;53.554;9.964;2023-02-28T07:23:12;14.80;;;11.10;;
9964;SDS011;5023;53.554;9.964;2023-02-28T07:28:16;10.47;;;7.17;;
9964;SDS011;5023;53.554;9.964;2023-02-28T07:33:18;8.43;;;6.93;;
9964;SDS011;5023;53.554;9.964;2023-02-28T07:38:20;9.90;;;7.00;;
9964;SDS011;5023;53.554;9.964;2023-02-28T07:43:23;10.83;;;7.57;;
9964;SDS011;5023;53.554;9.964;2023-02-28T07:48:25;10.03;;;8.33;;
9964;SDS011;5023;53.554;9.964;2023-02-28T07:53:28;11.43;;;8.57;;
9964;SDS011;5023;53.554;9.964;2023-02-28T07:58:31;13.30;;;9.00;;
9964;SDS011;5023;53.554;9.964;2023-02-28T08:03:35;10.33;;;8.37;;
9964;SDS011;5023;53.554;9.964;2023-02-28T08:08:39;10.57;;;9.27;;
9964;SDS011;5023;53.554;9.964;2023-02-28T08:13:44;13.47;;;8.93;;
9964;SDS011;5023;53.554;9.964;2023-02-28T08:18:46;11.93;;;8.37;;
9964;SDS011;5023;53.554;9.964;2023-02-28T08:23:51;12.37;;;8.37;;
9964;SDS011;5023;53.554;9.964;2023-02-28T08:28:58;14.50;;;8.93;;
9964;SDS011;5023;53.554;9.964;2023-02-28T08:34:00;14.30;;;8.63;;
9964;SDS011;5023;53.554;9.964;2023-02-28T08:39:06;13.13;;;8.73;;
9964;SDS011;5023;53.554;9.964;2023-02-28T08:44:11;18.53;;;6.87;;
9964;SDS011;5023;53.554;9.964;2023-02-28T08:49:13;12.53;;;6.10;;
9964;SDS011;5023;53.554;9.964;2023-02-28T08:54:16;12.60;;;7.13;;
9964;SDS011;5023;53.554;9.964;2023-02-28T08:59:20;10.70;;;5.50;;
9964;SDS011;5023;53.554;9.964;2023-02-28T09:04:22;17.17;;;6.77;;
9964;SDS011;5023;53.554;9.964;2023-02-28T09:09:24;8.37;;;6.80;;
9964;SDS011;5023;53.554;9.964;2023-02-28T09:14:28;6.00;;;4.80;;
9964;SDS011;5023;53.554;9.964;2023-02-28T09:19:30;5.83;;;3.90;;
9964;SDS011;5023;53.554;9.964;2023-02-28T09:24:34;11.30;;;4.37;;
9964;SDS011;5023;53.554;9.964;2023-02-28T09:29:40;5.47;;;2.30;;
9964;SDS011;5023;53.554;9.964;2023-02-28T09:34:42;2.47;;;2.20;;
9964;SDS011;5023;53.554;9.964;2023-02-28T09:39:44;4.97;;;1.52;;
9964;SDS011;5023;53.554;9.964;2023-02-28T09:44:47;1.93;;;1.57;;
9964;SDS011;5023;53.554;9.964;2023-02-28T09:49:51;2.93;;;2.00;;
9964;SDS011;5023;53.554;9.964;2023-02-28T09:54:53;1.87;;;1.40;;
9964;SDS011;5023;53.554;9.964;2023-02-28T10:00:05;1.63;;;1.37;;
9964;SDS011;5023;53.554;9.964;2023-02-28T10:05:17;1.10;;;1.00;;
9964;SDS011;5023;53.554;9.964;2023-02-28T10:10:22;2.23;;;1.30;;
9964;SDS011;5023;53.554;9.964;2023-02-28T10:15:31;1.57;;;1.47;;
9964;SDS011;5023;53.554;9.964;2023-02-28T10:20:35;1.70;;;1.60;;
9964;SDS011;5023;53.554;9.964;2023-02-28T10:25:41;1.70;;;1.60;;
9964;SDS011;5023;53.554;9.964;2023-02-28T10:30:51;2.40;;;2.20;;
9964;SDS011;5023;53.554;9.964;2023-02-28T10:35:55;3.33;;;3.03;;
9964;SDS011;5023;53.554;9.964;2023-02-28T10:41:03;2.47;;;1.90;;
9964;SDS011;5023;53.554;9.964;2023-02-28T10:46:11;4.20;;;2.20;;
9964;SDS011;5023;53.554;9.964;2023-02-28T10:51:25;3.17;;;2.30;;
9964;SDS011;5023;53.554;9.964;2023-02-28T10:56:37;4.10;;;2.30;;
9964;SDS011;5023;53.554;9.964;2023-02-28T11:01:41;3.47;;;2.37;;
9964;SDS011;5023;53.554;9.964;2023-02-28T11:06:45;4.50;;;2.50;;
9964;SDS011;5023;53.554;9.964;2023-02-28T11:11:47;3.13;;;2.30;;
9964;SDS011;5023;53.554;9.964;2023-02-28T11:16:52;4.73;;;2.63;;
9964;SDS011;5023;53.554;9.964;2023-02-28T11:21:57;3.87;;;2.30;;
9964;SDS011;5023;53.554;9.964;2023-02-28T11:27:02;3.20;;;2.67;;
9964;SDS011;5023;53.554;9.964;2023-02-28T11:32:11;2.43;;;2.13;;
9964;SDS011;5023;53.554;9.964;2023-02-28T11:37:15;5.97;;;2.90;;
9964;SDS011;5023;53.554;9.964;2023-02-28T11:42:37;3.43;;;2.33;;
9964;SDS011;5023;53.554;9.964;2023-02-28T11:48:10;2.40;;;2.13;;
9964;SDS011;5023;53.554;9.964;2023-02-28T11:53:21;3.37;;;2.80;;
9964;SDS011;5023;53.554;9.964;2023-02-28T11:58:30;4.93;;;2.70;;
9964;SDS011;5023;53.554;9.964;2023-02-28T12:03:45;4.17;;;2.00;;
9964;SDS011;5023;53.554;9.964;2023-02-28T12:09:04;4.33;;;2.77;;
9964;SDS011;5023;53.554;9.964;2023-02-28T12:19:54;2.43;;;2.27;;
9964;SDS011;5023;53.554;9.964;2023-02-28T12:25:13;4.77;;;2.97;;
9964;SDS011;5023;53.554;9.964;2023-02-28T12:30:30;2.53;;;2.30;;
9964;SDS011;5023;53.554;9.964;2023-02-28T12:35:39;4.10;;;2.80;;
9964;SDS011;5023;53.554;9.964;2023-02-28T12:40:53;4.23;;;2.77;;
9964;SDS011;5023;53.554;9.964;2023-02-28T12:46:03;6.50;;;4.10;;
9964;SDS011;5023;53.554;9.964;2023-02-28T12:51:12;3.57;;;3.20;;
9964;SDS011;5023;53.554;9.964;2023-02-28T12:56:17;6.57;;;5.43;;
9964;SDS011;5023;53.554;9.964;2023-02-28T13:01:36;3.30;;;2.87;;
9964;SDS011;5023;53.554;9.964;2023-02-28T13:06:57;5.63;;;3.33;;
9964;SDS011;5023;53.554;9.964;2023-02-28T13:12:12;3.37;;;2.27;;
9964;SDS011;5023;53.554;9.964;2023-02-28T13:17:18;5.27;;;2.70;;
9964;SDS011;5023;53.554;9.964;2023-02-28T13:22:35;7.53;;;2.57;;
9964;SDS011;5023;53.554;9.964;2023-02-28T13:27:39;2.60;;;2.40;;
9964;SDS011;5023;53.554;9.964;2023-02-28T13:32:44;2.70;;;2.50;;
9964;SDS011;5023;53.554;9.964;2023-02-28T13:37:48;5.83;;;2.67;;
9964;SDS011;5023;53.554;9.964;2023-02-28T13:42:51;4.63;;;2.93;;
9964;SDS011;5023;53.554;9.964;2023-02-28T13:47:59;3.63;;;3.00;;
9964;SDS011;5023;53.554;9.964;2023-02-28T13:58:48;2.33;;;2.13;;
9964;SDS011;5023;53.554;9.964;2023-02-28T14:04:02;8.50;;;6.83;;
9964;SDS011;5023;53.554;9.964;2023-02-28T14:09:25;6.20;;;2.73;;
9964;SDS011;5023;53.554;9.964;2023-02-28T14:19:58;5.13;;;3.80;;
9964;SDS011;5023;53.554;9.964;2023-02-28T14:25:06;4.87;;;2.77;;
9964;SDS011;5023;53.554;9.964;2023-02-28T14:30:29;6.53;;;2.80;;
9964;SDS011;5023;53.554;9.964;2023-02-28T14:35:51;5.97;;;3.37;;
9964;SDS011;5023;53.554;9.964;2023-02-28T14:41:04;6.30;;;3.20;;
9964;SDS011;5023;53.554;9.964;2023-02-28T14:46:20;10.73;;;7.60;;
9964;SDS011;5023;53.554;9.964;2023-02-28T14:51:24;3.33;;;2.80;;
9964;SDS011;5023;53.554;9.964;2023-02-28T14:56:27;9.07;;;4.20;;
9964;SDS011;5023;53.554;9.964;2023-02-28T15:01:35;4.43;;;3.27;;
9964;SDS011;5023;53.554;9.964;2023-02-28T15:06:38;7.77;;;4.73;;
9964;SDS011;5023;53.554;9.964;2023-02-28T15:11:42;6.10;;;3.83;;
9964;SDS011;5023;53.554;9.964;2023-02-28T15:16:51;9.33;;;6.10;;
9964;SDS011;5023;53.554;9.964;2023-02-28T15:21:59;10.13;;;5.27;;
9964;SDS011;5023;53.554;9.964;2023-02-28T15:27:04;6.77;;;4.23;;
9964;SDS011;5023;53.554;9.964;2023-02-28T15:32:17;5.73;;;2.83;;
9964;SDS011;5023;53.554;9.964;2023-02-28T15:37:28;5.87;;;3.60;;
9964;SDS011;5023;53.554;9.964;2023-02-28T15:42:34;9.33;;;4.67;;
9964;SDS011;5023;53.554;9.964;2023-02-28T15:47:38;3.03;;;2.60;;
9964;SDS011;5023;53.554;9.964;2023-02-28T15:52:42;6.87;;;5.10;;
9964;SDS011;5023;53.554;9.964;2023-02-28T15:57:47;10.43;;;6.80;;
9964;SDS011;5023;53.554;9.964;2023-02-28T16:02:54;148.43;;;87.70;;
9964;SDS011;5023;53.554;9.964;2023-02-28T16:07:56;11.17;;;6.73;;
9964;SDS011;5023;53.554;9.964;2023-02-28T16:13:01;4.93;;;3.37;;
9964;SDS011;5023;53.554;9.964;2023-02-28T16:18:07;5.77;;;3.40;;
9964;SDS011;5023;53.554;9.964;2023-02-28T16:23:11;10.80;;;6.40;;
9964;SDS011;5023;53.554;9.964;2023-02-28T16:28:15;8.23;;;6.53;;
9964;SDS011;5023;53.554;9.964;2023-02-28T16:33:24;5.53;;;3.80;;
9964;SDS011;5023;53.554;9.964;2023-02-28T16:38:26;4.13;;;3.73;;
9964;SDS011;5023;53.554;9.964;2023-02-28T16:43:28;11.40;;;6.90;;
9964;SDS011;5023;53.554;9.964;2023-02-28T16:48:33;7.90;;;5.97;;
9964;SDS011;5023;53.554;9.964;2023-02-28T16:53:35;5.93;;;3.30;;
9964;SDS011;5023;53.554;9.964;2023-02-28T16:58:37;3.00;;;2.50;;
9964;SDS011;5023;53.554;9.964;2023-02-28T17:03:42;3.93;;;3.03;;
9964;SDS011;5023;53.554;9.964;2023-02-28T17:08:44;5.27;;;3.50;;
9964;SDS011;5023;53.554;9.964;2023-02-28T17:13:46;4.80;;;3.30;;
9964;SDS011;5023;53.554;9.964;2023-02-28T17:18:50;7.77;;;3.40;;
9964;SDS011;5023;53.554;9.964;2023-02-28T17:23:53;6.23;;;4.30;;
9964;SDS011;5023;53.554;9.964;2023-02-28T17:28:56;8.77;;;5.70;;
9964;SDS011;5023;53.554;9.964;2023-02-28T17:34:00;7.23;;;5.17;;
9964;SDS011;5023;53.554;9.964;2023-02-28T17:39:03;8.27;;;6.43;;
9964;SDS011;5023;53.554;9.964;2023-02-28T17:44:10;14.63;;;9.70;;
9964;SDS011;5023;53.554;9.964;2023-02-28T17:49:14;10.80;;;7.50;;
9964;SDS011;5023;53.554;9.964;2023-02-28T17:54:16;9.23;;;6.03;;
9964;SDS011;5023;53.554;9.964;2023-02-28T17:59:18;7.80;;;5.10;;
9964;SDS011;5023;53.554;9.964;2023-02-28T18:04:22;11.60;;;8.50;;
9964;SDS011;5023;53.554;9.964;2023-02-28T18:09:26;7.97;;;5.90;;
9964;SDS011;5023;53.554;9.964;2023-02-28T18:14:29;9.43;;;6.57;;
9964;SDS011;5023;53.554;9.964;2023-02-28T18:19:32;8.97;;;5.33;;
9964;SDS011;5023;53.554;9.964;2023-02-28T18:24:34;8.60;;;6.20;;
9964;SDS011;5023;53.554;9.964;2023-02-28T18:29:38;9.47;;;6.40;;
9964;SDS011;5023;53.554;9.964;2023-02-28T18:34:42;6.17;;;4.90;;
9964;SDS011;5023;53.554;9.964;2023-02-28T18:39:44;8.53;;;5.20;;
9964;SDS011;5023;53.554;9.964;2023-02-28T18:44:47;16.10;;;9.90;;
9964;SDS011;5023;53.554;9.964;2023-02-28T18:49:50;7.93;;;5.97;;
9964;SDS011;5023;53.554;9.964;2023-02-28T18:54:52;7.73;;;5.67;;
9964;SDS011;5023;53.554;9.964;2023-02-28T18:59:54;29.07;;;19.20;;
9964;SDS011;5023;53.554;9.964;2023-02-28T19:04:57;13.70;;;8.93;;
9964;SDS011;5023;53.554;9.964;2023-02-28T19:09:59;13.37;;;9.70;;
9964;SDS011;5023;53.554;9.964;2023-02-28T19:15:03;22.93;;;12.63;;
9964;SDS011;5023;53.554;9.964;2023-02-28T19:20:09;15.83;;;9.37;;
9964;SDS011;5023;53.554;9.964;2023-02-28T19:25:15;16.57;;;9.97;;
9964;SDS011;5023;53.554;9.964;2023-02-28T19:30:18;21.17;;;13.37;;
9964;SDS011;5023;53.554;9.964;2023-02-28T19:35:21;19.63;;;14.17;;
9964;SDS011;5023;53.554;9.964;2023-02-28T19:40:23;17.30;;;12.50;;
9964;SDS011;5023;53.554;9.964;2023-02-28T19:45:25;23.23;;;15.37;;
9964;SDS011;5023;53.554;9.964;2023-02-28T19:50:29;15.33;;;8.53;;
9964;SDS011;5023;53.554;9.964;2023-02-28T19:55:31;10.63;;;8.30;;
9964;SDS011;5023;53.554;9.964;2023-02-28T20:00:34;27.87;;;18.33;;
9964;SDS011;5023;53.554;9.964;2023-02-28T20:05:37;11.80;;;8.97;;
9964;SDS011;5023;53.554;9.964;2023-02-28T20:10:39;13.87;;;9.77;;
9964;SDS011;5023;53.554;9.964;2023-02-28T20:15:41;17.07;;;13.00;;
9964;SDS011;5023;53.554;9.964;2023-02-28T20:20:45;12.53;;;9.50;;
9964;SDS011;5023;53.554;9.964;2023-02-28T20:25:47;31.53;;;21.33;;
9964;SDS011;5023;53.554;9.964;2023-02-28T20:30:50;13.10;;;9.60;;
9964;SDS011;5023;53.554;9.964;2023-02-28T20:35:58;13.30;;;9.00;;
9964;SDS011;5023;53.554;9.964;2023-02-28T20:41:01;17.63;;;11.43;;
9964;SDS011;5023;53.554;9.964;2023-02-28T20:46:04;24.87;;;14.27;;
9964;SDS011;5023;53.554;9.964;2023-02-28T20:51:07;20.00;;;13.27;;
9964;SDS011;5023;53.554;9.964;2023-02-28T20:56:10;13.17;;;9.37;;
9964;SDS011;5023;53.554;9.964;2023-02-28T21:01:15;14.27;;;8.50;;
9964;SDS011;5023;53.554;9.964;2023-02-28T21:06:21;10.07;;;7.67;;
9964;SDS011;5023;53.554;9.964;2023-02-28T21:11:25;11.73;;;7.83;;
9964;SDS011;5023;53.554;9.964;2023-02-28T21:16:29;14.40;;;10.37;;
9964;SDS011;5023;53.554;9.964;2023-02-28T21:21:35;14.77;;;10.20;;
9964;SDS011;5023;53.554;9.964;2023-02-28T21:26:39;29.27;;;14.67;;
9964;SDS011;5023;53.554;9.964;2023-02-28T21:31:42;18.73;;;11.93;;
9964;SDS011;5023;53.554;9.964;2023-02-28T21:36:46;11.67;;;8.70;;
9964;SDS011;5023;53.554;9.964;2023-02-28T21:41:48;19.13;;;11.03;;
9964;SDS011;5023;53.554;9.964;2023-02-28T21:46:51;17.63;;;12.00;;
9964;SDS011;5023;53.554;9.964;2023-02-28T21:51:57;18.03;;;12.13;;
9964;SDS011;5023;53.554;9.964;2023-02-28T21:56:59;22.40;;;11.80;;
9964;SDS011;5023;53.554;9.964;2023-02-28T22:02:01;11.83;;;8.57;;
9964;SDS011;5023;53.554;9.964;2023-02-28T22:07:06;13.17;;;9.63;;
9964;SDS011;5023;53.554;9.964;2023-02-28T22:12:08;12.03;;;9.03;;
9964;SDS011;5023;53.554;9.964;2023-02-28T22:17:10;14.43;;;8.73;;
9964;SDS011;5023;53.554;9.964;2023-02-28T22:22:13;12.87;;;8.93;;
9964;SDS011;5023;53.554;9.964;2023-02-28T22:27:15;20.07;;;13.13;;
9964;SDS011;5023;53.554;9.964;2023-02-28T22:32:17;13.67;;;9.33;;
9964;SDS011;5023;53.554;9.964;2023-02-28T22:37:20;10.67;;;7.40;;
9964;SDS011;5023;53.554;9.964;2023-02-28T22:42:23;31.37;;;22.20;;
9964;SDS011;5023;53.554;9.964;2023-02-28T22:47:25;10.40;;;8.80;;
9964;SDS011;5023;53.554;9.964;2023-02-28T22:52:31;9.43;;;7.40;;
9964;SDS011;5023;53.554;9.964;2023-02-28T22:57:34;19.47;;;12.97;;
9964;SDS011;5023;53.554;9.964;2023-02-28T23:02:37;9.83;;;7.67;;
9964;SDS011;5023;53.554;9.964;2023-02-28T23:07:41;8.70;;;7.77;;
9964;SDS011;5023;53.554;9.964;2023-02-28T23:12:43;11.23;;;8.20;;
9964;SDS011;5023;53.554;9.964;2023-02-28T23:17:50;15.97;;;10.57;;
9964;SDS011;5023;53.554;9.964;2023-02-28T23:22:55;7.77;;;6.03;;
9964;SDS011;5023;53.554;9.964;2023-02-28T23:27:57;11.20;;;7.90;;
9964;SDS011;5023;53.554;9.964;2023-02-28T23:32:59;11.67;;;8.67;;
9964;SDS011;5023;53.554;9.964;2023-02-28T23:38:05;9.40;;;6.10;;
9964;SDS011;5023;53.554;9.964;2023-02-28T23:43:07;7.47;;;5.90;;
9964;SDS011;5023;53.554;9.964;2023-02-28T23:48:09;7.40;;;5.93;;
9964;SDS011;5023;53.554;9.964;2023-02-28T23:53:12;8.50;;;5.90;;
9964;SDS011;5023;53.554;9.964;2023-02-28T23:58:14;7.47;;;6.43;;
